Alfredo Chaves, Brazil
Current Conditions -  °F | °C
As of 10:00 AM on Thursday 23 Oct 2014 (Local Time) from SBVT Reporting Station
Broken Clouds Broken Clouds  
Wind Chill: 77°   Ceiling: 7000
Heat Index: 79°   Visibility: 6mi
Dew Point: 59°   Wind: 6mph
Humidity: 54%   Direction: 190°S
Pressure: 30.18"   Gusts: NA
Location:  20.64°S, 40.75°W
Report Text: SBVT 231200Z 19005KT 9999 FEW030 SCT050 BKN070 25/15 Q1022
Loading
Personal Weather Stations






























Interactive Weather Map
Tropical Storm Tracking
New forecast layout! Learn more

10-Day Weather Forecast

Advertisements
Track Severe Weather on mobile